Latest Weather Observations for Montague Island

IDN60801

Issued at 11:53 pm EST Friday 16 April 2021 (issued every 10 minutes, with the page automatically refreshed every 10 minutes)

About weather observations | Map of weather stations | Latest weather observations for NSW | Other Formats
Station Details ID: 069017 Name: MONTAGUE ISLAND LIGHTHOUSE Lat: -36.25 Lon: 150.23 Height: 52.0 m
Data from the previous 72 hours. | See also: Recent months at Montague Island
Date/Time
EST
Temp
°C
App
Temp
°C
Dew
Point
°C
Rel
Hum
%
Delta-T
°C
Wind Press
QNH
hPa
Press
MSL
hPa
Rain since
9am
mm
Dir  Spd
km/h
Gust
km/h
Spd
kts
Gust
kts
16/11:30pm - - - - - SSE 13 17 7 9 1023.8 1023.7 0.0
16/11:00pm - - - - - S 9 11 5 6 1024.0 1023.9 0.0
16/10:30pm - - - - - S 11 15 6 8 1024.0 1023.9 0.0
16/10:00pm - - - - - S 9 13 5 7 1024.3 1024.2 0.0
16/09:30pm - - - - - SE 11 17 6 9 1024.4 1024.3 0.0
16/09:00pm - - - - - SSE 13 17 7 9 1024.3 1024.2 0.0
16/08:30pm - - - - - SSE 15 20 8 11 1024.3 1024.2 0.0
16/08:00pm - - - - - SSE 13 20 7 11 1024.2 1024.1 0.0
16/07:30pm - - - - - SE 15 20 8 11 1023.9 1023.8 0.0
16/07:00pm - - - - - SSE 13 20 7 11 1023.7 1023.6 0.0
16/06:30pm - - - - - SE 13 20 7 11 1023.4 1023.3 0.0
16/06:00pm - - - - - SE 19 26 10 14 1023.0 1022.9 0.0
16/05:30pm - - - - - SSE 19 28 10 15 1022.6 1022.5 0.0
16/05:00pm - - - - - SSE 20 28 11 15 1022.1 1022.0 0.0
16/04:30pm - - - - - SE 26 32 14 17 1022.0 1021.9 0.0
16/04:00pm - - - - - SE 30 37 16 20 1021.7 1021.6 0.0
16/03:30pm - - - - - SE 32 39 17 21 1021.5 1021.4 0.0
16/03:00pm - - - - - SSE 33 41 18 22 1021.2 1021.1 0.0
16/02:30pm - - - - - SSE 30 35 16 19 1021.4 1021.3 0.0
16/02:00pm - - - - - SSE 28 35 15 19 1021.2 1021.1 0.0
16/01:30pm - - - - - SSE 28 35 15 19 1021.1 1021.0 0.0
16/01:00pm - - - - - SSE 26 33 14 18 1021.5 1021.4 0.0
16/12:30pm - - - - - SSW 26 37 14 20 1021.5 1021.4 0.0
16/12:00pm - - - - - S 26 35 14 19 1021.9 1021.8 0.0
16/11:30am - - - - - SSW 26 35 14 19 1022.0 1021.9 0.0
16/11:00am - - - - - SSW 26 35 14 19 1022.2 1022.1 0.0
16/10:30am - - - - - SSW 28 37 15 20 1022.1 1022.0 0.0
16/10:00am - - - - - SSW 33 43 18 23 1021.9 1021.8 0.0
16/09:30am - - - - - SSW 33 46 18 25 1021.8 1021.7 0.0
16/09:00am - - - - - SSW 35 43 19 23 1021.6 1021.5 0.0
16/08:30am - - - - - SW 43 61 23 33 1021.3 1021.2 0.0
16/08:20am - - - - - SW 41 59 22 32 1020.6 1020.5 0.0
16/08:00am - - - - - SW 39 48 21 26 1020.6 1020.5 0.0
16/07:30am - - - - - SW 41 54 22 29 1020.3 1020.2 0.0
16/07:00am - - - - - SW 41 50 22 27 1019.6 1019.5 0.0
16/06:30am - - - - - SW 41 54 22 29 1018.9 1018.8 0.0
16/06:00am - - - - - SSW 44 56 24 30 1018.4 1018.3 0.0
16/05:30am - - - - - SSW 48 59 26 32 1018.0 1017.9 0.0
16/05:00am - - - - - SSW 48 56 26 30 1017.6 1017.5 0.0
16/04:30am - - - - - S 35 48 19 26 1017.2 1017.1 0.0
16/04:00am - - - - - SW 24 37 13 20 1016.9 1016.8 0.0
16/03:30am - - - - - SW 19 24 10 13 1016.3 1016.2 0.0
16/03:00am - - - - - W 24 32 13 17 1015.8 1015.6 0.0
16/02:30am - - - - - W 22 26 12 14 1015.8 1015.6 0.0
16/02:00am - - - - - W 24 30 13 16 1015.8 1015.6 0.0
16/01:30am - - - - - W 24 32 13 17 1015.7 1015.5 0.0
16/01:00am - - - - - WNW 19 24 10 13 1015.6 1015.4 0.0
16/12:30am - - - - - W 17 20 9 11 1015.6 1015.4 0.0
16/12:00am - - - - - W 13 17 7 9 1015.5 1015.3 0.0
 
Date/Time
EST
Temp
°C
App
Temp
°C
Dew
Point
°C
Rel
Hum
%
Delta-T
°C
Wind Press
QNH
hPa
Press
MSL
hPa
Rain since
9am
mm
Dir  Spd
km/h
Gust
km/h
Spd
kts
Gust
kts
15/11:30pm - - - - - WSW 11 15 6 8 1015.5 1015.3 0.0
15/11:00pm - - - - - SW 9 15 5 8 1015.3 1015.1 0.0
15/10:30pm - - - - - SSW 15 17 8 9 1015.3 1015.1 0.0
15/10:00pm - - - - - S 19 22 10 12 1015.2 1015.0 0.0
15/09:30pm - - - - - S 22 28 12 15 1015.0 1014.8 0.0
15/09:00pm - - - - - SSE 33 41 18 22 1014.2 1014.0 0.0
15/08:51pm - - - - - SE 37 43 20 23 1014.1 1013.9 0.0
15/08:30pm - - - - - SE 32 37 17 20 1013.8 1013.6 0.0
15/08:00pm - - - - - SE 33 39 18 21 1013.6 1013.4 0.0
15/07:30pm - - - - - SE 35 41 19 22 1013.2 1013.0 0.0
15/07:00pm - - - - - SE 22 28 12 15 1012.9 1012.8 0.0
15/06:30pm - - - - - ESE 15 19 8 10 1012.6 1012.5 0.0
15/06:00pm - - - - - ENE 11 15 6 8 1012.2 1012.1 0.0
15/05:30pm - - - - - ENE 13 17 7 9 1011.6 1011.5 0.0
15/05:00pm - - - - - NE 19 24 10 13 1011.2 1011.1 0.0
15/04:30pm - - - - - NE 24 30 13 16 1010.8 1010.7 0.0
15/04:00pm - - - - - NE 26 32 14 17 1010.4 1010.3 0.0
15/03:30pm - - - - - NE 28 33 15 18 1010.5 1010.4 0.0
15/03:00pm - - - - - ENE 30 35 16 19 1010.5 1010.4 0.0
15/02:30pm - - - - - ENE 30 35 16 19 1010.7 1010.6 0.0
15/02:00pm - - - - - ENE 28 32 15 17 1011.0 1010.9 0.0
15/01:30pm - - - - - ENE 24 30 13 16 1011.4 1011.3 0.0
15/01:00pm - - - - - ENE 20 26 11 14 1011.9 1011.8 0.0
15/12:30pm - - - - - ENE 24 28 13 15 1012.2 1012.1 0.0
15/12:00pm - - - - - ENE 19 22 10 12 1013.1 1012.9 0.0
15/11:30am - - - - - E 17 22 9 12 1013.4 1013.2 0.0
15/11:00am - - - - - E 15 19 8 10 1013.8 1013.6 0.0
15/10:30am - - - - - ESE 15 19 8 10 1014.2 1014.0 0.0
15/10:00am - - - - - ESE 15 19 8 10 1014.2 1014.0 0.0
15/09:30am - - - - - ESE 17 19 9 10 1014.3 1014.1 0.0
15/09:00am - - - - - ESE 15 19 8 10 1014.5 1014.3 0.0
15/08:30am - - - - - ESE 17 22 9 12 1014.4 1014.2 0.0
15/08:00am - - - - - ESE 19 24 10 13 1014.3 1014.1 0.0
15/07:30am - - - - - ESE 17 20 9 11 1014.1 1013.9 0.0
15/07:00am - - - - - ESE 20 24 11 13 1013.8 1013.6 0.0
15/06:30am - - - - - ESE 15 22 8 12 1013.5 1013.3 0.0
15/06:00am - - - - - WSW 6 7 3 4 1013.5 1013.3 0.0
15/05:30am - - - - - WSW 7 9 4 5 1013.4 1013.2 0.0
15/05:00am - - - - - WSW 7 9 4 5 1013.3 1013.1 0.0
15/04:30am - - - - - W 11 15 6 8 1013.2 1013.0 0.0
15/04:00am - - - - - W 4 7 2 4 1012.9 1012.8 0.0
15/03:30am - - - - - WSW 6 7 3 4 1012.8 1012.7 0.0
15/03:00am - - - - - SSW 7 13 4 7 1012.8 1012.7 0.0
15/02:30am - - - - - SW 9 15 5 8 1012.9 1012.8 0.0
15/02:00am - - - - - SSW 9 15 5 8 1013.1 1012.9 0.0
15/01:30am - - - - - SW 9 13 5 7 1013.3 1013.1 0.0
15/01:00am - - - - - W 15 24 8 13 1013.3 1013.1 0.0
15/12:30am - - - - - SW 17 32 9 17 1013.1 1012.9 0.0
15/12:00am - - - - - W 26 32 14 17 1012.4 1012.3 0.0
 
Date/Time
EST
Temp
°C
App
Temp
°C
Dew
Point
°C
Rel
Hum
%
Delta-T
°C
Wind Press
QNH
hPa
Press
MSL
hPa
Rain since
9am
mm
Dir  Spd
km/h
Gust
km/h
Spd
kts
Gust
kts
14/11:30pm - - - - - WNW 20 26 11 14 1012.6 1012.5 0.0
14/11:00pm - - - - - WNW 19 26 10 14 1012.8 1012.7 0.0
14/10:30pm - - - - - WNW 20 26 11 14 1012.7 1012.6 0.0
14/10:00pm - - - - - WNW 19 26 10 14 1012.6 1012.5 0.0
14/09:30pm - - - - - WNW 32 39 17 21 1012.2 1012.1 0.0
14/09:00pm - - - - - WNW 22 26 12 14 1012.3 1012.2 0.0
14/08:30pm - - - - - W 17 22 9 12 1012.4 1012.3 0.0
14/08:00pm - - - - - WNW 24 28 13 15 1012.0 1011.9 0.0
14/07:30pm - - - - - W 30 39 16 21 1011.7 1011.6 0.0
14/07:00pm - - - - - W 28 35 15 19 1011.5 1011.4 0.0
14/06:30pm - - - - - W 50 63 27 34 1010.6 1010.5 0.0
14/06:18pm - - - - - W 50 67 27 36 1010.0 1009.9 0.0
14/06:00pm - - - - - W 35 46 19 25 1010.2 1010.1 0.0
14/05:30pm - - - - - WSW 32 44 17 24 1010.0 1009.9 0.0
14/05:00pm - - - - - WNW 22 35 12 19 1009.3 1009.2 0.0
14/04:30pm - - - - - WNW 22 30 12 16 1008.6 1008.5 0.0
14/04:00pm - - - - - W 13 20 7 11 1008.5 1008.4 0.0
14/03:30pm - - - - - NW 6 9 3 5 1008.4 1008.3 0.0
14/03:00pm - - - - - NE 11 17 6 9 1008.4 1008.3 0.0
14/02:30pm - - - - - NNE 20 28 11 15 1008.5 1008.4 0.0
14/02:00pm - - - - - NNE 26 32 14 17 1008.5 1008.4 0.0
14/01:30pm - - - - - NNE 30 35 16 19 1008.5 1008.4 0.0
14/01:00pm - - - - - N 22 32 12 17 1008.9 1008.8 0.0
14/12:30pm - - - - - N 24 33 13 18 1009.2 1009.1 0.0
14/12:00pm - - - - - N 28 35 15 19 1009.4 1009.3 0.0
14/11:30am - - - - - NNW 26 39 14 21 1009.8 1009.7 0.0
14/11:00am - - - - - NNW 24 35 13 19 1010.1 1010.0 0.0
14/10:30am - - - - - NNW 28 35 15 19 1010.4 1010.3 0.0
14/10:00am - - - - - NNW 28 37 15 20 1010.8 1010.7 0.0
14/09:30am - - - - - NNW 20 26 11 14 1011.0 1010.9 0.0
14/09:00am - - - - - NW 13 19 7 10 1011.2 1011.1 0.0
14/08:30am - - - - - NNW 13 15 7 8 1011.2 1011.1 0.0
14/08:00am - - - - - N 15 19 8 10 1011.1 1011.0 0.0
14/07:30am - - - - - N 9 15 5 8 1010.9 1010.8 0.0
14/07:00am - - - - - N 15 20 8 11 1010.6 1010.5 0.0
14/06:30am - - - - - N 24 32 13 17 1010.4 1010.3 0.0
14/06:00am - - - - - N 35 43 19 23 1009.6 1009.5 0.0
14/05:30am - - - - - NNW 28 43 15 23 1009.5 1009.4 0.0
14/05:00am - - - - - NNW 20 28 11 15 1009.7 1009.6 0.0
14/04:30am - - - - - NNW 19 24 10 13 1009.8 1009.7 0.0
14/04:00am - - - - - NNW 19 24 10 13 1009.6 1009.5 0.0
14/03:30am - - - - - NW 11 17 6 9 1010.4 1010.3 0.0
14/03:00am - - - - - NW 9 13 5 7 1010.5 1010.4 0.0
14/02:30am - - - - - NNW 24 35 13 19 1010.8 1010.7 0.0
14/02:00am - - - - - N 26 35 14 19 1011.0 1010.9 0.0
14/01:30am - - - - - N 30 39 16 21 1011.5 1011.4 0.0
14/01:00am - - - - - N 33 43 18 23 1011.8 1011.7 0.0
14/12:30am - - - - - N 30 41 16 22 1012.1 1012.0 0.0
14/12:00am - - - - - N 33 46 18 25 1012.6 1012.5 0.0

Other formats

Comma delimited format used in spreadsheet applications
http://www.bom.gov.au/fwo/IDN60801/IDN60801.94939.axf

JavaScript Object Notation format (JSON) in row-major order
http://www.bom.gov.au/fwo/IDN60801/IDN60801.94939.json

Data quality

Most of these data are generated automatically and are frequently updated. Quality checks on data are not normally performed. It is possible for incorrect values to appear. Refer to information at About Latest Weather Observations and please check the disclaimer before using these data.